AAY4765 KCVG-KSBN
Flight info
| Callsign | AAY4765 |
|---|---|
| Flight time | 0h 40m |
| Altitude | 24000 |
| Route | JBNCH6 BARKS GSH |
| Aircraft | A320/M-SDE3FGHIRWY/LB1 |
Departure
| Time | 2026-05-06 18:54 |
|---|---|
| Airport | Cincinnati Northern Kentucky International Airport (KCVG) |
Arrival
| Time | 2026-05-06 19:34 |
|---|---|
| Airport | South Bend International Airport (KSBN) |
| Time | Latitude | Longitude | Altitude | Speed | Heading |
|---|---|---|---|---|---|
| 2026-05-06 18:18 | 39.05288 | -84.65454 | 879 ft | 0 kts | 0° |
| 2026-05-06 18:42 | 39.05275 | -84.65454 | 879 ft | 4 kts | 1° |
| 2026-05-06 18:42 | 39.05248 | -84.65456 | 879 ft | 4 kts | 7° |
| 2026-05-06 18:43 | 39.05222 | -84.65464 | 879 ft | 4 kts | 37° |
| 2026-05-06 18:43 | 39.05213 | -84.65480 | 879 ft | 0 kts | 90° |
| 2026-05-06 18:46 | 39.05212 | -84.65443 | 879 ft | 8 kts | 90° |
| 2026-05-06 18:47 | 39.05213 | -84.65380 | 879 ft | 6 kts | 89° |
| 2026-05-06 18:47 | 39.05213 | -84.65305 | 879 ft | 9 kts | 90° |
| 2026-05-06 18:47 | 39.05213 | -84.65224 | 879 ft | 9 kts | 89° |
| 2026-05-06 18:47 | 39.05214 | -84.65146 | 879 ft | 8 kts | 90° |
| 2026-05-06 18:48 | 39.05214 | -84.65117 | 879 ft | 0 kts | 90° |
| 2026-05-06 18:49 | 39.05213 | -84.65091 | 879 ft | 6 kts | 90° |
| 2026-05-06 18:49 | 39.05176 | -84.65066 | 879 ft | 12 kts | 178° |
| 2026-05-06 18:50 | 39.05090 | -84.65067 | 879 ft | 12 kts | 181° |
| 2026-05-06 18:50 | 39.05003 | -84.65067 | 879 ft | 13 kts | 180° |
| 2026-05-06 18:50 | 39.04915 | -84.65067 | 879 ft | 12 kts | 180° |
| 2026-05-06 18:50 | 39.04840 | -84.65068 | 879 ft | 10 kts | 180° |
| 2026-05-06 18:51 | 39.04810 | -84.65106 | 879 ft | 7 kts | 263° |
| 2026-05-06 18:51 | 39.04809 | -84.65197 | 879 ft | 13 kts | 270° |
| 2026-05-06 18:51 | 39.04788 | -84.65298 | 880 ft | 11 kts | 203° |
| 2026-05-06 18:51 | 39.04727 | -84.65300 | 881 ft | 7 kts | 178° |
| 2026-05-06 18:52 | 39.04680 | -84.65300 | 883 ft | 11 kts | 179° |
| 2026-05-06 18:52 | 39.04626 | -84.65343 | 883 ft | 9 kts | 253° |
| 2026-05-06 18:52 | 39.04624 | -84.65374 | 883 ft | 1 kts | 269° |
| 2026-05-06 18:52 | 39.04624 | -84.65375 | 883 ft | 0 kts | 269° |
| 2026-05-06 18:53 | 39.04626 | -84.65575 | 882 ft | 60 kts | 269° |
| 2026-05-06 18:53 | 39.04629 | -84.66413 | 884 ft | 124 kts | 270° |
| 2026-05-06 18:53 | 39.04631 | -84.67749 | 894 ft | 171 kts | 275° |
| 2026-05-06 18:53 | 39.04652 | -84.69282 | 1490 ft | 171 kts | 275° |
| 2026-05-06 18:54 | 39.04658 | -84.70818 | 2206 ft | 172 kts | 274° |
| 2026-05-06 18:54 | 39.04654 | -84.72386 | 2720 ft | 184 kts | 273° |
| 2026-05-06 18:54 | 39.04648 | -84.74135 | 2946 ft | 209 kts | 272° |
| 2026-05-06 18:54 | 39.04643 | -84.76120 | 3253 ft | 234 kts | 272° |
| 2026-05-06 18:55 | 39.04641 | -84.78324 | 3723 ft | 256 kts | 272° |
| 2026-05-06 18:55 | 39.04636 | -84.80646 | 4554 ft | 261 kts | 272° |
| 2026-05-06 18:55 | 39.04627 | -84.82995 | 5525 ft | 262 kts | 270° |
| 2026-05-06 18:55 | 39.04617 | -84.85331 | 6560 ft | 260 kts | 270° |
| 2026-05-06 18:56 | 39.04968 | -84.87595 | 7493 ft | 264 kts | 295° |
| 2026-05-06 18:56 | 39.06268 | -84.89288 | 8388 ft | 278 kts | 327° |
| 2026-05-06 18:56 | 39.08206 | -84.89841 | 9218 ft | 299 kts | 358° |
| 2026-05-06 18:56 | 39.10272 | -84.89104 | 9986 ft | 317 kts | 16° |
| 2026-05-06 18:57 | 39.12404 | -84.88305 | 10404 ft | 324 kts | 358° |
| 2026-05-06 18:57 | 39.14645 | -84.88377 | 10672 ft | 332 kts | 343° |
| 2026-05-06 18:57 | 39.16914 | -84.89012 | 11279 ft | 334 kts | 335° |
| 2026-05-06 18:57 | 39.19170 | -84.89879 | 12043 ft | 335 kts | 333° |
| 2026-05-06 18:58 | 39.21371 | -84.90767 | 12819 ft | 338 kts | 332° |
| 2026-05-06 18:58 | 39.23635 | -84.91634 | 13598 ft | 341 kts | 333° |
| 2026-05-06 18:58 | 39.25944 | -84.92447 | 14294 ft | 345 kts | 334° |
| 2026-05-06 18:58 | 39.28290 | -84.93213 | 14969 ft | 349 kts | 334° |
| 2026-05-06 18:59 | 39.30656 | -84.93942 | 15617 ft | 352 kts | 335° |
| 2026-05-06 18:59 | 39.33049 | -84.94660 | 16301 ft | 354 kts | 335° |
| 2026-05-06 18:59 | 39.35460 | -84.95378 | 16999 ft | 356 kts | 335° |
| 2026-05-06 18:59 | 39.37873 | -84.96097 | 17689 ft | 358 kts | 335° |
| 2026-05-06 19:00 | 39.40307 | -84.96829 | 18358 ft | 360 kts | 334° |
| 2026-05-06 19:00 | 39.42749 | -84.97564 | 18909 ft | 362 kts | 334° |
| 2026-05-06 19:00 | 39.45224 | -84.98315 | 19449 ft | 366 kts | 333° |
| 2026-05-06 19:00 | 39.46867 | -84.98819 | 19804 ft | 368 kts | 333° |
| 2026-05-06 19:01 | 39.50212 | -84.99851 | 20516 ft | 372 kts | 332° |
| 2026-05-06 19:01 | 39.52744 | -85.00629 | 21059 ft | 375 kts | 332° |
| 2026-05-06 19:01 | 39.55296 | -85.01409 | 21568 ft | 379 kts | 332° |
| 2026-05-06 19:01 | 39.57856 | -85.02230 | 22079 ft | 375 kts | 327° |
| 2026-05-06 19:02 | 39.60253 | -85.03440 | 22616 ft | 367 kts | 321° |
| 2026-05-06 19:02 | 39.62606 | -85.04757 | 23168 ft | 370 kts | 321° |
| 2026-05-06 19:02 | 39.64931 | -85.06066 | 23685 ft | 372 kts | 320° |
| 2026-05-06 19:02 | 39.67340 | -85.07426 | 23953 ft | 373 kts | 320° |
| 2026-05-06 19:03 | 39.69713 | -85.08756 | 24022 ft | 365 kts | 320° |
| 2026-05-06 19:03 | 39.71985 | -85.10010 | 24030 ft | 355 kts | 320° |
| 2026-05-06 19:03 | 39.74239 | -85.11266 | 24032 ft | 352 kts | 320° |
| 2026-05-06 19:03 | 39.76481 | -85.12528 | 24015 ft | 350 kts | 319° |
| 2026-05-06 19:04 | 39.78716 | -85.13798 | 24020 ft | 350 kts | 319° |
| 2026-05-06 19:04 | 39.80945 | -85.15069 | 24023 ft | 350 kts | 319° |
| 2026-05-06 19:04 | 39.83175 | -85.16338 | 24018 ft | 350 kts | 319° |
| 2026-05-06 19:04 | 39.85402 | -85.17604 | 24019 ft | 349 kts | 319° |
| 2026-05-06 19:05 | 39.86874 | -85.18440 | 24021 ft | 349 kts | 319° |
| 2026-05-06 19:05 | 39.89104 | -85.19705 | 24019 ft | 349 kts | 319° |
| 2026-05-06 19:05 | 39.91333 | -85.20968 | 24026 ft | 349 kts | 319° |
| 2026-05-06 19:05 | 39.93558 | -85.22230 | 24027 ft | 349 kts | 319° |
| 2026-05-06 19:06 | 39.95791 | -85.23497 | 24031 ft | 349 kts | 319° |
| 2026-05-06 19:06 | 39.98019 | -85.24760 | 24033 ft | 349 kts | 319° |
| 2026-05-06 19:06 | 40.00247 | -85.26024 | 24038 ft | 349 kts | 319° |
| 2026-05-06 19:06 | 40.02470 | -85.27288 | 24038 ft | 349 kts | 319° |
| 2026-05-06 19:07 | 40.04695 | -85.28556 | 24042 ft | 349 kts | 319° |
| 2026-05-06 19:07 | 40.06915 | -85.29822 | 24042 ft | 349 kts | 319° |
| 2026-05-06 19:07 | 40.09139 | -85.31087 | 24046 ft | 349 kts | 319° |
| 2026-05-06 19:07 | 40.11363 | -85.32351 | 24046 ft | 348 kts | 319° |
| 2026-05-06 19:08 | 40.13583 | -85.33617 | 24047 ft | 348 kts | 319° |
| 2026-05-06 19:08 | 40.15801 | -85.34887 | 24050 ft | 348 kts | 319° |
| 2026-05-06 19:08 | 40.18017 | -85.36158 | 24052 ft | 348 kts | 319° |
| 2026-05-06 19:08 | 40.20232 | -85.37427 | 24051 ft | 347 kts | 319° |
| 2026-05-06 19:09 | 40.22447 | -85.38693 | 24053 ft | 347 kts | 319° |
| 2026-05-06 19:09 | 40.24726 | -85.39837 | 24056 ft | 359 kts | 326° |
| 2026-05-06 19:09 | 40.27119 | -85.40800 | 24055 ft | 359 kts | 326° |
| 2026-05-06 19:09 | 40.29504 | -85.41762 | 24055 ft | 359 kts | 326° |
| 2026-05-06 19:10 | 40.31889 | -85.42722 | 24059 ft | 358 kts | 326° |
| 2026-05-06 19:10 | 40.34272 | -85.43681 | 24054 ft | 358 kts | 326° |
| 2026-05-06 19:10 | 40.36652 | -85.44642 | 24056 ft | 358 kts | 326° |
| 2026-05-06 19:10 | 40.39024 | -85.45601 | 24059 ft | 357 kts | 326° |
| 2026-05-06 19:11 | 40.41404 | -85.46565 | 24050 ft | 357 kts | 326° |
| 2026-05-06 19:11 | 40.43777 | -85.47528 | 24062 ft | 357 kts | 326° |
| 2026-05-06 19:11 | 40.46149 | -85.48492 | 24063 ft | 357 kts | 326° |
| 2026-05-06 19:11 | 40.48492 | -85.49426 | 24063 ft | 354 kts | 327° |
| 2026-05-06 19:12 | 40.50812 | -85.50307 | 23989 ft | 340 kts | 326° |
| 2026-05-06 19:12 | 40.53033 | -85.51206 | 23738 ft | 329 kts | 324° |
| 2026-05-06 19:12 | 40.55176 | -85.52170 | 23310 ft | 323 kts | 322° |
| 2026-05-06 19:12 | 40.57265 | -85.53194 | 22841 ft | 318 kts | 322° |
| 2026-05-06 19:13 | 40.59320 | -85.54252 | 22375 ft | 316 kts | 321° |
| 2026-05-06 19:13 | 40.61360 | -85.55322 | 21920 ft | 315 kts | 322° |
| 2026-05-06 19:13 | 40.63393 | -85.56390 | 21469 ft | 314 kts | 322° |
| 2026-05-06 19:13 | 40.65424 | -85.57453 | 21025 ft | 314 kts | 323° |
| 2026-05-06 19:14 | 40.67457 | -85.58509 | 20645 ft | 312 kts | 323° |
| 2026-05-06 19:14 | 40.69444 | -85.59526 | 20520 ft | 301 kts | 323° |
| 2026-05-06 19:14 | 40.71372 | -85.60502 | 20372 ft | 292 kts | 323° |
| 2026-05-06 19:14 | 40.73249 | -85.61457 | 20136 ft | 286 kts | 323° |
| 2026-05-06 19:15 | 40.75083 | -85.62398 | 19870 ft | 281 kts | 323° |
| 2026-05-06 19:15 | 40.76900 | -85.63340 | 19540 ft | 280 kts | 323° |
| 2026-05-06 19:15 | 40.78710 | -85.64282 | 19202 ft | 280 kts | 324° |
| 2026-05-06 19:15 | 40.80521 | -85.65224 | 18858 ft | 280 kts | 324° |
| 2026-05-06 19:16 | 40.82310 | -85.66155 | 18522 ft | 280 kts | 325° |
| 2026-05-06 19:16 | 40.84147 | -85.67108 | 18171 ft | 280 kts | 326° |
| 2026-05-06 19:16 | 40.85931 | -85.68029 | 17872 ft | 277 kts | 326° |
| 2026-05-06 19:16 | 40.87717 | -85.68949 | 17583 ft | 274 kts | 326° |
| 2026-05-06 19:17 | 40.89491 | -85.69866 | 17257 ft | 273 kts | 326° |
| 2026-05-06 19:17 | 40.91253 | -85.70778 | 17004 ft | 269 kts | 326° |
| 2026-05-06 19:17 | 40.92988 | -85.71671 | 16755 ft | 266 kts | 326° |
| 2026-05-06 19:17 | 40.94721 | -85.72569 | 16297 ft | 271 kts | 327° |
| 2026-05-06 19:18 | 40.96478 | -85.73485 | 15975 ft | 271 kts | 327° |
| 2026-05-06 19:18 | 40.98235 | -85.74395 | 15679 ft | 271 kts | 328° |
| 2026-05-06 19:18 | 40.99987 | -85.75304 | 15375 ft | 270 kts | 328° |
| 2026-05-06 19:18 | 41.01731 | -85.76211 | 15086 ft | 270 kts | 328° |
| 2026-05-06 19:19 | 41.03476 | -85.77119 | 14799 ft | 269 kts | 329° |
| 2026-05-06 19:19 | 41.05271 | -85.77884 | 14474 ft | 279 kts | 343° |
| 2026-05-06 19:19 | 41.07266 | -85.77941 | 14121 ft | 290 kts | 354° |
| 2026-05-06 19:19 | 41.09280 | -85.77837 | 13852 ft | 289 kts | 354° |
| 2026-05-06 19:20 | 41.11286 | -85.77725 | 13576 ft | 287 kts | 354° |
| 2026-05-06 19:20 | 41.13271 | -85.77620 | 13312 ft | 284 kts | 354° |
| 2026-05-06 19:20 | 41.15239 | -85.77518 | 13047 ft | 282 kts | 354° |
| 2026-05-06 19:20 | 41.17189 | -85.77417 | 12770 ft | 279 kts | 354° |
| 2026-05-06 19:21 | 41.19122 | -85.77321 | 12505 ft | 277 kts | 354° |
| 2026-05-06 19:21 | 41.21037 | -85.77231 | 12226 ft | 274 kts | 354° |
| 2026-05-06 19:21 | 41.22916 | -85.77147 | 11952 ft | 272 kts | 354° |
| 2026-05-06 19:21 | 41.24820 | -85.77068 | 11672 ft | 270 kts | 354° |
| 2026-05-06 19:22 | 41.26691 | -85.76996 | 11385 ft | 268 kts | 354° |
| 2026-05-06 19:22 | 41.28546 | -85.76931 | 11099 ft | 266 kts | 354° |
| 2026-05-06 19:22 | 41.30313 | -85.77284 | 10807 ft | 251 kts | 331° |
| 2026-05-06 19:22 | 41.31840 | -85.78275 | 10644 ft | 239 kts | 325° |
| 2026-05-06 19:23 | 41.33276 | -85.79319 | 10484 ft | 232 kts | 324° |
| 2026-05-06 19:23 | 41.34674 | -85.80354 | 10223 ft | 229 kts | 324° |
| 2026-05-06 19:23 | 41.36026 | -85.81368 | 10069 ft | 221 kts | 324° |
| 2026-05-06 19:23 | 41.37363 | -85.82375 | 9747 ft | 221 kts | 324° |
| 2026-05-06 19:24 | 41.38697 | -85.83390 | 9385 ft | 221 kts | 324° |
| 2026-05-06 19:24 | 41.40107 | -85.84221 | 9023 ft | 224 kts | 337° |
| 2026-05-06 19:24 | 41.41612 | -85.84800 | 8680 ft | 224 kts | 339° |
| 2026-05-06 19:24 | 41.43113 | -85.85347 | 8341 ft | 224 kts | 339° |
| 2026-05-06 19:25 | 41.44609 | -85.85897 | 8024 ft | 222 kts | 340° |
| 2026-05-06 19:25 | 41.46095 | -85.86456 | 7699 ft | 222 kts | 340° |
| 2026-05-06 19:25 | 41.47575 | -85.87026 | 7367 ft | 221 kts | 340° |
| 2026-05-06 19:25 | 41.49045 | -85.87601 | 7060 ft | 219 kts | 340° |
| 2026-05-06 19:26 | 41.50507 | -85.88185 | 6736 ft | 219 kts | 340° |
| 2026-05-06 19:26 | 41.51958 | -85.88778 | 6433 ft | 218 kts | 340° |
| 2026-05-06 19:26 | 41.53401 | -85.89374 | 6120 ft | 217 kts | 339° |
| 2026-05-06 19:26 | 41.54768 | -85.90103 | 5832 ft | 212 kts | 323° |
| 2026-05-06 19:27 | 41.55784 | -85.91503 | 5530 ft | 206 kts | 301° |
| 2026-05-06 19:27 | 41.56561 | -85.93090 | 5297 ft | 203 kts | 301° |
| 2026-05-06 19:27 | 41.57321 | -85.94639 | 5034 ft | 201 kts | 301° |
| 2026-05-06 19:27 | 41.58089 | -85.96201 | 4779 ft | 201 kts | 301° |
| 2026-05-06 19:28 | 41.58850 | -85.97755 | 4507 ft | 200 kts | 302° |
| 2026-05-06 19:28 | 41.59609 | -85.99308 | 4255 ft | 199 kts | 302° |
| 2026-05-06 19:28 | 41.60364 | -86.00854 | 3973 ft | 198 kts | 302° |
| 2026-05-06 19:28 | 41.61116 | -86.02398 | 3723 ft | 198 kts | 302° |
| 2026-05-06 19:29 | 41.61860 | -86.03928 | 3475 ft | 197 kts | 301° |
| 2026-05-06 19:29 | 41.62608 | -86.05465 | 3235 ft | 196 kts | 302° |
| 2026-05-06 19:29 | 41.63354 | -86.06998 | 3001 ft | 197 kts | 302° |
| 2026-05-06 19:29 | 41.64101 | -86.08526 | 2812 ft | 195 kts | 302° |
| 2026-05-06 19:30 | 41.64843 | -86.10046 | 2564 ft | 195 kts | 302° |
| 2026-05-06 19:30 | 41.65581 | -86.11560 | 2271 ft | 193 kts | 302° |
| 2026-05-06 19:30 | 41.66311 | -86.13061 | 2023 ft | 192 kts | 301° |
| 2026-05-06 19:30 | 41.67038 | -86.14558 | 1986 ft | 193 kts | 302° |
| 2026-05-06 19:31 | 41.67768 | -86.16059 | 2001 ft | 189 kts | 302° |
| 2026-05-06 19:31 | 41.68457 | -86.17480 | 2026 ft | 173 kts | 302° |
| 2026-05-06 19:31 | 41.69639 | -86.19911 | 1997 ft | 144 kts | 303° |
| 2026-05-06 19:32 | 41.70179 | -86.21023 | 2023 ft | 142 kts | 303° |
| 2026-05-06 19:32 | 41.70566 | -86.22222 | 1925 ft | 141 kts | 280° |
| 2026-05-06 19:32 | 41.70573 | -86.23514 | 1779 ft | 140 kts | 270° |
| 2026-05-06 19:32 | 41.70555 | -86.24793 | 1581 ft | 139 kts | 270° |
| 2026-05-06 19:33 | 41.70537 | -86.26047 | 1382 ft | 138 kts | 270° |
| 2026-05-06 19:33 | 41.70518 | -86.27356 | 1204 ft | 138 kts | 271° |
| 2026-05-06 19:33 | 41.70499 | -86.28634 | 1011 ft | 137 kts | 270° |
| 2026-05-06 19:33 | 41.70480 | -86.29912 | 829 ft | 137 kts | 270° |
| 2026-05-06 19:34 | 41.70469 | -86.31102 | 787 ft | 114 kts | 269° |
| 2026-05-06 19:34 | 41.70450 | -86.31950 | 785 ft | 66 kts | 269° |
| 2026-05-06 19:34 | 41.70442 | -86.32339 | 788 ft | 17 kts | 267° |
| 2026-05-06 19:34 | 41.70442 | -86.32442 | 789 ft | 9 kts | 271° |
| 2026-05-06 19:35 | 41.70390 | -86.32522 | 791 ft | 15 kts | 175° |
| 2026-05-06 19:35 | 41.70333 | -86.32457 | 792 ft | 11 kts | 90° |
| 2026-05-06 19:35 | 41.70333 | -86.32330 | 790 ft | 21 kts | 90° |
| 2026-05-06 19:35 | 41.70329 | -86.32147 | 785 ft | 17 kts | 100° |
| 2026-05-06 19:36 | 41.70292 | -86.31998 | 784 ft | 16 kts | 109° |
| 2026-05-06 19:36 | 41.70258 | -86.31853 | 781 ft | 16 kts | 112° |
| 2026-05-06 19:36 | 41.70228 | -86.31731 | 780 ft | 9 kts | 98° |
| 2026-05-06 19:36 | 41.70227 | -86.31643 | 780 ft | 16 kts | 91° |
| 2026-05-06 19:37 | 41.70248 | -86.31462 | 780 ft | 16 kts | 74° |
| 2026-05-06 19:37 | 41.70256 | -86.31325 | 781 ft | 11 kts | 102° |
| 2026-05-06 19:37 | 41.70197 | -86.31315 | 779 ft | 7 kts | 181° |
| 2026-05-06 19:37 | 41.70188 | -86.31316 | 778 ft | 0 kts | 181° |